Time;durP1;ratioP1;P1;durP2;ratioP2;P2;SDS_P1;SDS_P2;PMS_P1;PMS_P2;Temp;Humidity;BMP_temperature;BMP_pressure;BME280_temperature;BME280_humidity;BME280_pressure;Samples;Min_cycle;Max_cycle;Signal;HPM_P1;HPM_P2
2024/01/22 00:01:10;;;;;;;10.90;8.02;;;;;;;-1.74;79.06;148232.38;10678777;27;20064;-75
2024/01/22 00:06:12;;;;;;;11.80;7.97;;;;;;;-1.50;78.52;148292.50;10677056;27;20156;-75
2024/01/22 00:11:14;;;;;;;12.38;8.15;;;;;;;-1.60;78.94;148268.16;10676691;27;20039;-76
2024/01/22 00:16:16;;;;;;;9.68;7.63;;;;;;;-1.75;80.26;148229.84;10677227;27;20455;-75
2024/01/22 00:21:18;;;;;;;14.50;9.40;;;;;;;-1.73;80.13;148234.94;10677470;27;20406;-76
2024/01/22 00:26:22;;;;;;;11.35;8.68;;;;;;;-1.39;78.93;148320.59;10659346;27;20050;-75
2024/01/22 00:31:24;;;;;;;11.18;7.75;;;;;;;-1.35;78.96;148329.56;10657874;27;20035;-75
2024/01/22 00:36:25;;;;;;;14.05;8.88;;;;;;;-1.64;80.31;148256.66;10677303;27;20090;-75
2024/01/22 00:41:27;;;;;;;11.32;8.23;;;;;;;-1.54;80.69;148282.25;10679274;27;20045;-75
2024/01/22 00:46:29;;;;;;;10.43;7.35;;;;;;;-1.57;80.39;148275.84;10659438;27;20049;-76
2024/01/22 00:51:33;;;;;;;11.63;8.23;;;;;;;-1.48;80.32;148296.31;10677910;27;20046;-75
2024/01/22 00:56:35;;;;;;;8.63;7.03;;;;;;;-1.39;80.34;148319.31;10676726;27;20597;-75
2024/01/22 01:01:37;;;;;;;9.85;7.93;;;;;;;-1.32;79.79;148338.50;10677088;27;20030;-76
2024/01/22 01:06:39;;;;;;;8.48;6.72;;;;;;;-1.55;80.21;148281.00;10677106;27;20042;-75
2024/01/22 01:11:41;;;;;;;11.82;8.48;;;;;;;-1.29;79.49;148346.16;10659207;27;20046;-76
2024/01/22 01:16:43;;;;;;;9.52;7.53;;;;;;;-1.22;79.59;148361.53;10678794;27;20095;-75
2024/01/22 01:21:45;;;;;;;9.13;7.20;;;;;;;-1.31;79.24;148341.06;10675702;27;20070;-76
2024/01/22 01:26:47;;;;;;;10.27;7.00;;;;;;;-1.31;79.30;148341.06;10658671;27;20046;-75
2024/01/22 01:31:49;;;;;;;8.23;7.05;;;;;;;-1.41;79.71;148315.50;10677235;27;20546;-75
2024/01/22 01:36:51;;;;;;;9.98;7.25;;;;;;;-1.30;79.27;148342.34;10677809;27;20387;-75
2024/01/22 01:41:53;;;;;;;8.27;6.50;;;;;;;-1.42;79.93;148312.91;10674722;27;20048;-75
2024/01/22 01:46:55;;;;;;;9.00;6.78;;;;;;;-1.38;79.20;148323.13;10676266;27;20047;-75
2024/01/22 01:51:57;;;;;;;8.70;7.47;;;;;;;-1.48;80.42;148297.59;10675701;27;20039;-74
2024/01/22 01:57:00;;;;;;;12.00;6.40;;;;;;;-1.10;78.84;148393.50;10674346;27;20042;-75
2024/01/22 02:02:02;;;;;;;8.30;5.78;;;;;;;-1.05;78.79;148405.00;10656727;27;20038;-75
2024/01/22 02:07:04;;;;;;;8.82;6.68;;;;;;;-0.96;78.22;148428.03;10674119;27;20039;-75
2024/01/22 02:12:06;;;;;;;7.75;6.95;;;;;;;-0.97;77.38;148424.16;10655538;27;20051;-75
2024/01/22 02:17:08;;;;;;;9.02;6.63;;;;;;;-0.90;78.85;148443.38;10655485;27;20113;-75
2024/01/22 02:22:10;;;;;;;11.85;6.60;;;;;;;-0.82;79.26;148463.84;10674173;27;20035;-75
2024/01/22 02:27:12;;;;;;;7.50;6.00;;;;;;;-0.71;78.08;148490.69;10675155;27;20043;-75
2024/01/22 02:32:14;;;;;;;7.90;5.47;;;;;;;-0.69;79.01;148495.84;10673923;27;20083;-75
2024/01/22 02:37:15;;;;;;;7.05;5.07;;;;;;;-0.66;78.66;148502.25;10673082;27;20047;-76
2024/01/22 02:42:17;;;;;;;7.00;5.90;;;;;;;-0.44;78.00;148558.53;10673565;27;20187;-76
2024/01/22 02:47:19;;;;;;;6.53;5.45;;;;;;;-0.38;77.29;148572.59;10673968;27;20065;-76
2024/01/22 02:52:21;;;;;;;6.55;5.57;;;;;;;-0.32;76.37;148587.94;10673434;27;20065;-76
2024/01/22 02:57:23;;;;;;;9.18;6.47;;;;;;;-0.57;77.96;148525.28;10664665;27;20418;-75
2024/01/22 03:02:25;;;;;;;6.47;5.78;;;;;;;-0.39;77.04;148571.34;10684839;27;20054;-75
2024/01/22 03:07:27;;;;;;;6.18;5.25;;;;;;;-0.30;76.75;148593.09;10665463;27;20053;-76
2024/01/22 03:12:29;;;;;;;6.63;5.78;;;;;;;-0.29;76.93;148595.66;10665282;27;20045;-75
2024/01/22 03:17:31;;;;;;;8.10;5.38;;;;;;;-0.21;76.40;148616.13;10663564;27;20517;-76
2024/01/22 03:22:32;;;;;;;5.72;5.13;;;;;;;-0.22;76.96;148612.25;10681308;27;20050;-75
2024/01/22 03:27:34;;;;;;;7.57;5.65;;;;;;;-0.38;78.56;148573.88;10680986;27;20110;-76
2024/01/22 03:32:36;;;;;;;6.00;5.13;;;;;;;-0.40;78.67;148568.78;10680959;27;20096;-76
2024/01/22 03:37:40;;;;;;;7.85;5.85;;;;;;;-0.40;79.20;148567.47;10663730;27;20047;-77
2024/01/22 03:42:41;;;;;;;7.65;5.88;;;;;;;-0.21;78.28;148616.13;10661971;27;20137;-76
2024/01/22 03:47:43;;;;;;;11.48;6.22;;;;;;;0.01;76.68;148669.91;10679158;27;20072;-75
2024/01/22 03:52:45;;;;;;;7.43;5.93;;;;;;;-0.10;77.26;148644.25;10660456;27;20490;-75
2024/01/22 03:57:47;;;;;;;6.93;6.13;;;;;;;-0.01;76.56;148667.28;10678270;27;20062;-76
2024/01/22 04:02:50;;;;;;;8.32;6.50;;;;;;;-0.11;77.13;148641.72;10678798;27;20117;-77
2024/01/22 04:07:52;;;;;;;8.88;6.60;;;;;;;-0.16;77.69;148627.66;10676098;27;20043;-77
2024/01/22 04:12:56;;;;;;;8.60;6.50;;;;;;;-0.24;79.02;148607.16;10679690;27;20051;-76
2024/01/22 04:17:58;;;;;;;10.52;6.25;;;;;;;-0.21;79.18;148616.13;10678198;27;20046;-76
2024/01/22 04:23:00;;;;;;;8.18;5.78;;;;;;;-0.21;79.25;148616.13;10678524;27;20117;-76
2024/01/22 04:28:03;;;;;;;8.20;5.07;;;;;;;0.13;77.81;148701.84;10680888;27;20042;-75
2024/01/22 04:33:04;;;;;;;9.77;6.25;;;;;;;0.02;79.13;148672.44;10678531;27;20084;-75
2024/01/22 04:38:06;;;;;;;6.35;5.40;;;;;;;0.22;79.24;148723.63;10658716;27;20047;-75
2024/01/22 04:43:08;;;;;;;6.18;5.47;;;;;;;0.20;79.69;148718.53;10679520;27;20038;-75
2024/01/22 04:48:10;;;;;;;9.23;5.15;;;;;;;0.26;79.72;148733.88;10676930;27;20051;-75
2024/01/22 04:53:12;;;;;;;7.20;4.60;;;;;;;0.48;78.31;148790.22;10677389;27;20031;-75
2024/01/22 04:58:14;;;;;;;5.93;4.72;;;;;;;0.42;78.86;148774.88;10677315;27;20421;-76
2024/01/22 05:03:15;;;;;;;8.20;5.47;;;;;;;0.41;78.39;148772.31;10677122;27;20035;-76
2024/01/22 05:08:17;;;;;;;6.65;5.47;;;;;;;0.45;77.93;148781.28;10657671;27;20042;-76
2024/01/22 05:13:19;;;;;;;7.95;6.22;;;;;;;0.61;76.58;148822.25;10658349;27;20041;-75
2024/01/22 05:18:21;;;;;;;10.32;6.88;;;;;;;0.42;77.74;148773.59;10676052;27;20138;-75
2024/01/22 05:23:25;;;;;;;7.85;6.43;;;;;;;0.21;78.35;148721.06;10675386;27;20402;-76
2024/01/22 05:28:27;;;;;;;7.30;5.90;;;;;;;0.29;78.81;148740.28;10655474;27;20095;-76
2024/01/22 05:33:28;;;;;;;10.75;6.25;;;;;;;0.19;79.74;148717.25;10656763;27;20072;-75
2024/01/22 05:38:30;;;;;;;8.05;5.85;;;;;;;0.42;78.95;148774.88;10674899;27;20043;-76
2024/01/22 05:43:32;;;;;;;7.43;5.85;;;;;;;0.50;79.64;148795.38;10674438;27;20085;-76
2024/01/22 05:48:35;;;;;;;6.90;5.45;;;;;;;0.55;79.61;148805.63;10673946;27;20047;-74
2024/01/22 05:53:38;;;;;;;5.93;5.03;;;;;;;0.71;79.68;148846.63;10674051;27;20513;-74
2024/01/22 05:58:40;;;;;;;8.85;6.25;;;;;;;0.74;79.27;148855.53;10674359;27;20043;-75
2024/01/22 06:03:42;;;;;;;8.18;6.50;;;;;;;0.72;80.21;148849.16;10674133;27;20035;-76
2024/01/22 06:08:46;;;;;;;7.28;5.10;;;;;;;0.51;82.16;148796.63;10654260;27;20046;-74
2024/01/22 06:13:48;;;;;;;7.55;5.10;;;;;;;0.88;80.45;148888.84;10671966;27;20053;-75
2024/01/22 06:19:02;;;;;;;6.40;5.15;;;;;;;0.83;80.43;148876.06;10671479;27;20157;-75
2024/01/22 06:24:04;;;;;;;6.25;4.97;;;;;;;1.05;78.72;148932.41;10672004;27;20502;-74
2024/01/22 06:29:11;;;;;;;6.25;5.43;;;;;;;0.97;78.46;148911.91;10672421;27;20074;-74
2024/01/22 06:34:13;;;;;;;5.43;4.60;;;;;;;0.96;78.95;148910.63;10673778;27;20556;-74
2024/01/22 06:39:15;;;;;;;7.95;5.78;;;;;;;0.92;79.30;148899.09;10672856;27;20047;-74
2024/01/22 06:44:17;;;;;;;8.38;5.47;;;;;;;0.98;80.19;148915.78;10672869;27;20043;-74
2024/01/22 06:49:18;;;;;;;7.72;6.05;;;;;;;1.20;80.04;148969.63;10672825;27;20419;-74
2024/01/22 06:54:20;;;;;;;6.93;4.80;;;;;;;1.26;80.59;148984.97;10670427;27;20027;-73
2024/01/22 06:59:24;;;;;;;6.72;5.22;;;;;;;1.27;81.62;148988.81;10669876;27;20099;-74
2024/01/22 07:04:26;;;;;;;9.98;6.90;;;;;;;1.25;82.15;148983.69;10669319;27;20034;-74
2024/01/22 07:09:28;;;;;;;8.70;4.97;;;;;;;1.45;82.15;149033.66;10669694;27;20038;-74
2024/01/22 07:14:30;;;;;;;9.45;7.72;;;;;;;1.26;83.24;148984.97;10668085;27;20121;-74
2024/01/22 07:19:32;;;;;;;9.40;6.35;;;;;;;1.16;86.46;148960.63;10649423;27;20142;-74
2024/01/22 07:24:34;;;;;;;7.43;5.57;;;;;;;1.32;85.89;149000.34;10649941;27;20133;-74
2024/01/22 07:29:36;;;;;;;8.65;5.45;;;;;;;1.53;84.73;149052.91;10668791;27;20046;-75
2024/01/22 07:34:37;;;;;;;13.75;9.50;;;;;;;1.36;85.15;149010.59;10668546;27;20110;-74
2024/01/22 07:39:39;;;;;;;8.50;6.22;;;;;;;1.37;86.77;149011.88;10670231;27;20074;-74
2024/01/22 07:44:41;;;;;;;5.82;4.22;;;;;;;1.66;87.62;149084.94;10676442;27;20042;-75
2024/01/22 07:49:43;;;;;;;5.88;4.88;;;;;;;1.74;87.07;149106.75;10676973;27;20509;-74
2024/01/22 07:54:44;;;;;;;6.07;5.47;;;;;;;1.60;89.61;149070.84;10676189;27;20042;-74
2024/01/22 07:59:46;;;;;;;6.68;5.90;;;;;;;1.71;88.56;149097.75;10676062;27;20103;-75
2024/01/22 08:04:50;;;;;;;8.38;5.93;;;;;;;1.81;88.74;149122.13;10675266;27;20052;-74
2024/01/22 08:09:52;;;;;;;6.43;5.82;;;;;;;2.07;87.82;149188.78;10675956;27;20042;-76
2024/01/22 08:14:54;;;;;;;5.72;3.70;;;;;;;2.06;88.39;149186.22;10657617;27;20270;-74
2024/01/22 08:19:56;;;;;;;3.85;3.45;;;;;;;2.42;89.15;149276.00;10675280;27;20042;-74
2024/01/22 08:24:58;;;;;;;4.80;2.58;;;;;;;2.58;89.31;149317.09;10675319;27;20034;-74
2024/01/22 08:29:59;;;;;;;5.88;3.10;;;;;;;2.96;86.84;149413.28;10675514;27;20049;-74
2024/01/22 08:35:02;;;;;;;4.10;2.70;;;;;;;3.23;86.17;149481.34;10673246;27;20088;-74
2024/01/22 08:40:08;;;;;;;3.08;2.30;;;;;;;3.02;89.36;149428.72;10675257;27;20038;-74
2024/01/22 08:45:10;;;;;;;4.70;2.53;;;;;;;3.23;86.66;149480.03;10657349;27;20068;-74
2024/01/22 08:50:18;;;;;;;2.45;0.90;;;;;;;3.80;93.72;149623.84;10640252;27;20039;-73
2024/01/22 08:55:22;;;;;;;0.75;0.70;;;;;;;5.12;85.16;149956.66;10675456;27;20039;-74
2024/01/22 09:00:25;;;;;;;0.85;0.45;;;;;;;5.79;79.20;150126.41;10675732;27;20050;-73
2024/01/22 09:05:27;;;;;;;0.75;0.57;;;;;;;6.22;74.66;150233.25;10674388;27;20043;-73
2024/01/22 09:10:28;;;;;;;1.15;0.60;;;;;;;5.93;74.70;150159.91;10656957;27;20081;-73
2024/01/22 09:15:30;;;;;;;3.58;0.90;;;;;;;5.92;74.24;150157.34;10675514;27;20031;-75
2024/01/22 09:20:32;;;;;;;0.75;0.60;;;;;;;5.72;75.40;150108.41;10656918;27;20054;-73
2024/01/22 09:25:34;;;;;;;1.60;0.73;;;;;;;5.86;74.72;150141.88;10672216;27;20150;-74
2024/01/22 09:30:35;;;;;;;0.93;0.82;;;;;;;5.52;76.42;150058.22;10655355;27;20532;-74
2024/01/22 09:35:41;;;;;;;0.70;0.55;;;;;;;5.48;77.01;150046.66;10656078;27;20137;-75
2024/01/22 09:40:43;;;;;;;2.00;0.70;;;;;;;5.77;76.87;150121.28;10675314;27;20405;-74
2024/01/22 09:45:49;;;;;;;2.15;0.75;;;;;;;5.53;81.61;150060.84;10656604;27;20091;-74
2024/01/22 09:50:51;;;;;;;2.30;1.00;;;;;;;5.70;82.46;150103.25;10676117;27;20039;-74
2024/01/22 09:55:54;;;;;;;1.70;0.57;;;;;;;5.62;84.37;150082.66;10674597;27;20058;-74
2024/01/22 10:00:56;;;;;;;1.00;0.50;;;;;;;5.96;84.13;150168.91;10676423;27;20042;-75
2024/01/22 10:05:59;;;;;;;1.52;0.85;;;;;;;5.88;84.47;150148.28;10675258;27;20497;-75
2024/01/22 10:11:03;;;;;;;3.10;1.33;;;;;;;5.92;83.24;150158.63;10675776;27;20061;-75
2024/01/22 10:16:11;;;;;;;4.05;1.92;;;;;;;5.46;86.13;150041.53;10676172;27;20038;-75
2024/01/22 10:21:18;;;;;;;2.38;1.05;;;;;;;5.53;88.08;150060.84;10674696;27;20545;-74
2024/01/22 10:26:22;;;;;;;1.67;0.80;;;;;;;6.08;84.96;150198.53;10673987;27;20039;-75
2024/01/22 10:31:23;;;;;;;0.80;0.70;;;;;;;6.13;82.49;150210.09;10674507;27;20043;-75
2024/01/22 10:36:25;;;;;;;1.52;0.68;;;;;;;6.40;82.14;150279.56;10673865;27;20034;-74
2024/01/22 10:41:27;;;;;;;1.38;0.70;;;;;;;6.20;82.48;150228.13;10671308;27;20091;-74
2024/01/22 10:46:29;;;;;;;1.50;0.82;;;;;;;6.31;82.59;150256.41;10673603;27;20035;-75
2024/01/22 10:51:33;;;;;;;1.52;0.70;;;;;;;6.20;83.07;150228.13;10672470;27;20091;-74
2024/01/22 10:56:39;;;;;;;2.35;0.80;;;;;;;6.32;83.80;150260.25;10653004;27;20413;-74
2024/01/22 11:01:43;;;;;;;1.20;0.70;;;;;;;6.95;86.66;150418.63;10671853;27;20059;-74
2024/01/22 11:06:46;;;;;;;0.50;0.40;;;;;;;7.03;90.07;150437.91;10672350;27;20038;-74
2024/01/22 11:11:51;;;;;;;0.40;0.38;;;;;;;7.29;89.93;150503.59;10653880;27;20039;-77
2024/01/22 11:16:53;;;;;;;0.93;0.40;;;;;;;7.41;90.38;150534.50;10678577;27;20043;-76
2024/01/22 11:21:55;;;;;;;0.40;0.30;;;;;;;7.19;89.58;150479.13;10678750;27;20165;-75
2024/01/22 11:26:59;;;;;;;3.55;0.93;;;;;;;7.14;89.03;150464.97;10679605;27;20039;-76
2024/01/22 11:32:27;;;;;;;0.30;0.30;;;;;;;7.47;86.30;150548.66;10660140;27;20046;-76
2024/01/22 11:37:35;;;;;;;0.68;0.40;;;;;;;7.47;85.64;150549.94;10676995;27;20057;-76
2024/01/22 11:42:37;;;;;;;1.00;0.52;;;;;;;7.73;82.98;150614.38;10662917;27;20043;-77
2024/01/22 11:47:39;;;;;;;0.80;0.40;;;;;;;7.81;81.52;150636.28;10683516;27;20402;-78
2024/01/22 11:52:43;;;;;;;0.80;0.50;;;;;;;8.19;78.06;150731.66;10667217;27;20043;-77
2024/01/22 11:57:45;;;;;;;1.65;0.57;;;;;;;8.28;78.92;150753.56;10684696;27;20106;-78
2024/01/22 12:02:56;;;;;;;0.63;0.47;;;;;;;8.29;78.30;150756.13;10681515;27;20126;-77
2024/01/22 12:07:59;;;;;;;0.88;0.63;;;;;;;8.55;77.24;150823.22;10650252;27;20050;-78
2024/01/22 12:13:08;;;;;;;0.40;0.40;;;;;;;8.62;77.00;150838.66;10684679;27;20090;-78
2024/01/22 12:18:09;;;;;;;1.85;0.45;;;;;;;8.74;77.21;150870.91;10686799;27;20045;-79
2024/01/22 12:23:11;;;;;;;0.40;0.30;;;;;;;8.82;78.48;150890.25;10684405;27;20440;-78
2024/01/22 12:28:13;;;;;;;1.05;0.32;;;;;;;8.79;77.43;150882.50;10685972;27;20038;-79
2024/01/22 12:33:24;;;;;;;5.82;0.40;;;;;;;8.73;78.97;150868.34;10668239;27;20031;-79
2024/01/22 12:38:33;;;;;;;0.22;0.22;;;;;;;9.15;76.71;150974.06;10670033;27;20039;-79
2024/01/22 12:43:36;;;;;;;1.38;0.30;;;;;;;9.12;76.39;150965.03;10691146;27;20628;-78
2024/01/22 12:48:38;;;;;;;0.20;0.20;;;;;;;9.24;74.99;150995.97;10685245;27;20049;-79
2024/01/22 12:53:45;;;;;;;0.60;0.38;;;;;;;9.26;76.13;151001.16;10670066;27;20039;-79
2024/01/22 12:58:47;;;;;;;0.20;0.10;;;;;;;9.25;75.86;150999.88;10687338;27;20053;-78
2024/01/22 13:03:49;;;;;;;5.10;0.40;;;;;;;9.11;76.72;150963.72;10685388;27;20038;-77
2024/01/22 13:08:51;;;;;;;1.00;0.20;;;;;;;9.03;76.69;150944.44;10682753;27;20034;-79
2024/01/22 13:13:53;;;;;;;0.52;0.40;;;;;;;9.09;76.89;150958.59;10685356;27;20103;-78
2024/01/22 13:18:55;;;;;;;0.43;0.20;;;;;;;9.29;77.72;151008.88;10678628;27;20049;-79
2024/01/22 13:23:59;;;;;;;1.20;0.40;;;;;;;9.06;78.97;150952.13;10686849;27;20038;-78
2024/01/22 13:29:01;;;;;;;0.90;0.30;;;;;;;9.20;79.13;150986.94;10686057;27;20066;-78
2024/01/22 13:34:04;;;;;;;0.40;0.30;;;;;;;9.11;79.03;150963.72;10686785;27;20133;-79
2024/01/22 13:39:09;;;;;;;0.80;0.32;;;;;;;8.79;80.14;150883.78;10679336;27;20425;-78
2024/01/22 13:44:13;;;;;;;0.75;0.40;;;;;;;8.92;80.94;150916.03;10664266;27;20053;-79
2024/01/22 13:49:15;;;;;;;0.88;0.43;;;;;;;8.81;79.31;150888.97;10690693;27;20039;-79
2024/01/22 13:54:17;;;;;;;0.43;0.40;;;;;;;8.52;81.75;150814.19;10672399;27;20053;-79
2024/01/22 13:59:19;;;;;;;0.95;0.50;;;;;;;8.30;81.57;150759.97;10689582;27;20071;-79
2024/01/22 14:04:22;;;;;;;0.70;0.50;;;;;;;7.90;83.64;150656.91;10689473;27;20031;-79
2024/01/22 14:09:24;;;;;;;0.70;0.50;;;;;;;7.49;85.34;150555.13;10690340;27;20034;-79
2024/01/22 14:14:31;;;;;;;0.40;0.30;;;;;;;7.57;85.43;150575.75;10652514;27;20046;-79
2024/01/22 14:19:38;;;;;;;0.95;0.50;;;;;;;7.53;85.89;150564.16;10683684;27;20039;-80
2024/01/22 14:24:40;;;;;;;1.20;0.43;;;;;;;7.72;85.52;150611.81;10689582;27;20046;-79
2024/01/22 14:29:42;;;;;;;2.25;0.60;;;;;;;7.73;86.56;150615.66;10669504;27;20094;-79
2024/01/22 14:34:44;;;;;;;1.05;0.32;;;;;;;7.73;87.27;150614.38;10688041;27;20042;-79
2024/01/22 14:39:47;;;;;;;0.38;0.35;;;;;;;8.12;85.40;150712.31;10687983;27;20518;-79
2024/01/22 14:44:49;;;;;;;0.57;0.32;;;;;;;7.74;87.58;150616.94;10690833;27;20031;-80
2024/01/22 14:49:52;;;;;;;0.70;0.45;;;;;;;8.18;88.28;150729.03;10675585;27;20046;-79
2024/01/22 14:54:54;;;;;;;0.20;0.20;;;;;;;8.13;87.57;150714.88;10697592;27;20037;-79
2024/01/22 14:59:56;;;;;;;0.73;0.30;;;;;;;8.21;88.38;150735.50;10678468;27;20050;-79
2024/01/22 15:04:58;;;;;;;0.28;0.20;;;;;;;8.25;86.64;150747.09;10698572;27;20039;-80
2024/01/22 15:10:00;;;;;;;2.25;1.80;;;;;;;8.09;87.93;150705.84;10697254;27;20038;-79
2024/01/22 15:15:03;;;;;;;0.40;0.40;;;;;;;8.18;88.72;150727.75;10655441;27;20047;-77
2024/01/22 15:20:07;;;;;;;1.02;0.73;;;;;;;8.08;88.38;150704.56;10686226;27;20039;-78
2024/01/22 15:25:12;;;;;;;0.40;0.20;;;;;;;8.32;87.54;150763.84;10686269;27;20125;-78
2024/01/22 15:30:14;;;;;;;0.60;0.40;;;;;;;8.29;87.84;150757.41;10685917;27;20046;-78
2024/01/22 15:35:16;;;;;;;0.68;0.38;;;;;;;8.53;86.03;150818.03;10667150;27;20565;-78
2024/01/22 15:40:19;;;;;;;0.47;0.43;;;;;;;8.21;87.35;150736.78;10683343;27;20047;-76
2024/01/22 15:45:21;;;;;;;0.30;0.30;;;;;;;8.37;87.03;150776.81;10681734;27;20050;-77
2024/01/22 15:50:25;;;;;;;0.20;0.20;;;;;;;8.24;87.37;150743.25;10682133;27;20474;-77
2024/01/22 15:55:28;;;;;;;0.10;0.10;;;;;;;8.45;86.14;150797.38;10667567;27;20039;-77
2024/01/22 16:00:30;;;;;;;0.40;0.30;;;;;;;8.51;85.68;150812.88;10680373;27;20042;-77
2024/01/22 16:05:32;;;;;;;0.65;0.35;;;;;;;8.56;85.72;150825.78;10662879;27;20053;-77
2024/01/22 16:10:34;;;;;;;0.30;0.28;;;;;;;8.74;87.54;150869.63;10680150;27;20083;-76
2024/01/22 16:15:38;;;;;;;0.28;0.20;;;;;;;8.97;85.80;150927.63;10679591;27;20047;-76
2024/01/22 16:20:40;;;;;;;0.20;0.20;;;;;;;8.84;86.88;150895.38;10679853;27;20077;-76
2024/01/22 16:25:42;;;;;;;0.85;0.60;;;;;;;8.98;86.69;150930.19;10682111;27;20141;-78
2024/01/22 16:30:44;;;;;;;0.90;0.70;;;;;;;9.01;86.60;150939.25;10663761;27;20047;-75
2024/01/22 16:35:47;;;;;;;0.98;0.32;;;;;;;8.98;86.86;150930.19;10679889;27;20049;-76
2024/01/22 16:40:50;;;;;;;1.85;0.88;;;;;;;8.89;87.96;150907.00;10682578;27;20038;-76
2024/01/22 16:45:52;;;;;;;3.20;1.50;;;;;;;8.86;86.55;150899.28;10661330;27;20035;-76
2024/01/22 16:50:54;;;;;;;0.82;0.47;;;;;;;8.71;88.74;150861.88;10660201;27;20077;-74
2024/01/22 16:55:56;;;;;;;0.55;0.30;;;;;;;8.85;86.21;150897.97;10657658;27;20067;-74
2024/01/22 17:00:58;;;;;;;0.25;0.20;;;;;;;8.80;87.39;150885.06;10676247;27;20056;-76
2024/01/22 17:06:00;;;;;;;0.38;0.35;;;;;;;8.84;88.06;150895.38;10676668;27;20126;-74
2024/01/22 17:11:02;;;;;;;0.40;0.30;;;;;;;9.01;86.60;150937.94;10657655;27;20471;-75
2024/01/22 17:16:05;;;;;;;0.98;0.40;;;;;;;8.83;86.66;150894.09;10658516;27;20043;-76
2024/01/22 17:21:07;;;;;;;1.48;0.52;;;;;;;8.90;88.03;150910.88;10675069;27;20042;-74
2024/01/22 17:26:10;;;;;;;0.43;0.25;;;;;;;8.89;87.96;150908.28;10657786;27;20035;-74
2024/01/22 17:31:12;;;;;;;0.98;0.35;;;;;;;9.04;86.72;150945.72;10674832;27;20098;-76
2024/01/22 17:36:15;;;;;;;0.82;0.45;;;;;;;8.96;85.60;150925.06;10675087;27;20037;-75
2024/01/22 17:41:17;;;;;;;1.30;0.50;;;;;;;8.96;87.22;150925.06;10655903;27;20056;-75
2024/01/22 17:46:19;;;;;;;1.85;0.98;;;;;;;8.94;86.39;150921.22;10673986;27;20143;-76
2024/01/22 17:51:22;;;;;;;1.55;0.50;;;;;;;8.76;87.62;150874.75;10654355;27;20157;-75
2024/01/22 17:56:23;;;;;;;0.70;0.40;;;;;;;8.91;87.67;150913.47;10673558;27;20035;-75
2024/01/22 18:01:26;;;;;;;19.88;4.82;;;;;;;8.79;88.03;150883.78;10673487;27;20505;-75
2024/01/22 18:06:27;;;;;;;1.27;0.57;;;;;;;8.63;88.66;150841.22;10674561;27;20050;-76
2024/01/22 18:11:29;;;;;;;1.48;0.63;;;;;;;8.72;88.73;150864.44;10673229;27;20053;-75
2024/01/22 18:16:31;;;;;;;0.47;0.45;;;;;;;8.70;88.65;150859.28;10655038;27;20384;-74
2024/01/22 18:21:33;;;;;;;0.98;0.40;;;;;;;8.87;87.14;150901.84;10673369;27;20490;-75
2024/01/22 18:26:37;;;;;;;0.30;0.30;;;;;;;8.51;89.27;150811.59;10672116;27;20055;-74
2024/01/22 18:31:44;;;;;;;1.23;0.45;;;;;;;8.51;89.73;150812.88;10672865;27;20039;-76
2024/01/22 18:36:46;;;;;;;0.65;0.32;;;;;;;8.51;88.68;150811.59;10673309;27;20046;-75
2024/01/22 18:41:48;;;;;;;0.32;0.20;;;;;;;8.49;88.70;150807.72;10671655;27;20383;-74
2024/01/22 18:46:50;;;;;;;1.48;0.50;;;;;;;8.39;88.84;150780.66;10654594;27;20103;-75
2024/01/22 18:51:51;;;;;;;0.52;0.30;;;;;;;8.22;89.90;150739.34;10654269;27;20049;-75
2024/01/22 18:56:53;;;;;;;1.02;0.40;;;;;;;8.05;89.74;150696.81;10672835;27;20104;-75
2024/01/22 19:01:55;;;;;;;0.85;0.50;;;;;;;8.08;89.54;150704.56;10672631;27;20049;-75
2024/01/22 19:06:57;;;;;;;1.00;0.28;;;;;;;8.05;89.74;150695.53;10673023;27;20066;-75
2024/01/22 19:11:59;;;;;;;0.65;0.30;;;;;;;8.05;89.71;150695.53;10653896;27;20067;-75
2024/01/22 19:17:03;;;;;;;0.38;0.30;;;;;;;8.08;89.96;150704.56;10653683;27;20034;-73
2024/01/22 19:22:06;;;;;;;1.15;0.30;;;;;;;8.03;89.80;150691.69;10672423;27;20049;-74
2024/01/22 19:27:08;;;;;;;0.32;0.20;;;;;;;8.22;89.94;150738.06;10672528;27;20043;-75
2024/01/22 19:32:10;;;;;;;0.85;0.45;;;;;;;8.32;90.31;150763.84;10638142;27;20433;-74
2024/01/22 19:37:13;;;;;;;0.40;0.30;;;;;;;8.05;90.89;150696.81;10678831;27;20034;-75
2024/01/22 19:42:14;;;;;;;1.67;0.43;;;;;;;7.69;95.38;150605.34;10681123;27;20114;-74
2024/01/22 19:47:16;;;;;;;0.73;0.40;;;;;;;7.43;100.00;150539.63;10662269;27;20055;-75
2024/01/22 19:52:18;;;;;;;3.47;0.40;;;;;;;7.55;100.00;150569.28;10643941;27;20080;-75
2024/01/22 19:57:23;;;;;;;0.80;0.60;;;;;;;7.42;100.00;150535.78;10661559;27;20038;-76
2024/01/22 20:02:27;;;;;;;0.50;0.40;;;;;;;7.33;100.00;150513.88;10662244;27;20039;-76
2024/01/22 20:07:29;;;;;;;0.35;0.32;;;;;;;7.34;100.00;150516.44;10662018;27;20431;-75
2024/01/22 20:12:32;;;;;;;0.60;0.40;;;;;;;7.41;99.05;150533.22;10661236;27;20042;-76
2024/01/22 20:17:34;;;;;;;0.40;0.40;;;;;;;7.20;100.00;150480.41;10662382;27;20035;-74
2024/01/22 20:22:39;;;;;;;2.30;0.82;;;;;;;7.42;97.94;150535.78;10680311;27;20120;-74
2024/01/22 20:27:41;;;;;;;0.90;0.50;;;;;;;7.39;98.00;150528.03;10660664;27;20042;-75
2024/01/22 20:32:43;;;;;;;1.40;0.70;;;;;;;7.36;97.35;150521.63;10679910;27;20098;-74
2024/01/22 20:37:45;;;;;;;2.13;0.98;;;;;;;7.29;95.36;150504.88;10644551;27;20034;-75
2024/01/22 20:42:47;;;;;;;4.40;0.55;;;;;;;7.25;93.08;150494.56;10661514;27;20042;-75
2024/01/22 20:47:52;;;;;;;0.40;0.28;;;;;;;7.05;92.41;150443.09;10679048;27;20039;-75
2024/01/22 20:52:54;;;;;;;0.82;0.40;;;;;;;7.07;90.62;150449.50;10661695;27;20068;-76
2024/01/22 20:57:56;;;;;;;1.67;0.38;;;;;;;7.06;89.45;150445.66;10679467;27;20039;-75
2024/01/22 21:02:59;;;;;;;0.32;0.32;;;;;;;6.93;91.50;150412.16;10679335;27;20178;-74
2024/01/22 21:08:01;;;;;;;0.40;0.40;;;;;;;6.91;92.75;150408.31;10659764;27;20134;-75
2024/01/22 21:13:03;;;;;;;0.55;0.20;;;;;;;6.99;92.01;150427.59;10677926;27;20035;-75
2024/01/22 21:18:06;;;;;;;1.75;0.30;;;;;;;7.03;91.61;150439.19;10677202;27;20055;-74
2024/01/22 21:23:08;;;;;;;0.88;0.32;;;;;;;7.12;90.03;150459.78;10679747;27;20047;-75
2024/01/22 21:28:10;;;;;;;0.85;0.45;;;;;;;7.01;90.74;150434.06;10676210;27;20056;-74
2024/01/22 21:33:13;;;;;;;0.68;0.40;;;;;;;6.95;90.62;150418.63;10676805;27;20046;-74
2024/01/22 21:38:17;;;;;;;2.03;0.40;;;;;;;6.76;91.01;150370.94;10657522;27;20053;-75
2024/01/22 21:43:18;;;;;;;2.25;0.43;;;;;;;6.83;90.49;150389.00;10674859;27;20091;-75
2024/01/22 21:48:20;;;;;;;0.30;0.20;;;;;;;6.87;90.02;150398.03;10675512;27;20039;-75
2024/01/22 21:53:22;;;;;;;2.92;0.40;;;;;;;6.79;89.87;150378.69;10676415;27;20490;-75
2024/01/22 21:58:24;;;;;;;1.60;0.35;;;;;;;6.93;89.87;150412.16;10675717;27;20039;-75
2024/01/22 22:03:26;;;;;;;0.30;0.30;;;;;;;6.93;89.26;150412.16;10674923;27;20034;-75
2024/01/22 22:08:28;;;;;;;0.47;0.30;;;;;;;6.73;90.41;150361.94;10674522;27;20038;-74
2024/01/22 22:13:31;;;;;;;1.00;0.40;;;;;;;6.67;91.01;150346.50;10673962;27;20049;-74
2024/01/22 22:18:33;;;;;;;1.83;0.50;;;;;;;6.71;90.65;150356.81;10674013;27;20425;-74
2024/01/22 22:23:35;;;;;;;1.48;0.32;;;;;;;6.53;91.44;150313.03;10672052;27;20402;-74
2024/01/22 22:28:38;;;;;;;1.63;0.38;;;;;;;6.71;90.24;150356.81;10672528;27;20039;-74
2024/01/22 22:33:40;;;;;;;2.92;0.40;;;;;;;6.70;89.78;150354.25;10672577;27;20043;-74
2024/01/22 22:38:43;;;;;;;1.00;0.45;;;;;;;6.83;89.63;150389.00;10654362;27;20073;-74
2024/01/22 22:43:45;;;;;;;3.38;0.73;;;;;;;6.78;88.54;150376.13;10672409;27;20063;-74
2024/01/22 22:48:48;;;;;;;0.90;0.47;;;;;;;6.54;90.03;150315.59;10671330;27;20044;-74
2024/01/22 22:53:50;;;;;;;1.50;0.52;;;;;;;6.65;89.07;150342.66;10671752;27;20115;-73
2024/01/22 22:58:52;;;;;;;2.03;0.73;;;;;;;6.61;88.82;150332.34;10672688;27;20134;-75
2024/01/22 23:03:53;;;;;;;1.92;0.50;;;;;;;6.61;88.37;150331.06;10671085;27;20066;-74
2024/01/22 23:08:58;;;;;;;0.80;0.40;;;;;;;6.50;88.39;150304.03;10672199;27;20452;-74
2024/01/22 23:14:00;;;;;;;2.85;0.52;;;;;;;6.61;87.28;150332.34;10679538;27;20043;-74
2024/01/22 23:19:02;;;;;;;1.35;0.50;;;;;;;6.53;87.62;150313.03;10680311;27;20038;-74